createdAt,value
2019-05-11T00:04:18.807Z,20.77
2019-05-11T00:20:40.221Z,17.17
2019-05-11T00:25:56.003Z,17.27
2019-05-11T00:36:33.897Z,15.20
2019-05-11T00:41:48.914Z,15.03
2019-05-11T00:46:57.032Z,14.95
2019-05-11T00:52:07.718Z,15.58
2019-05-11T00:57:28.483Z,15.10
2019-05-11T01:02:45.835Z,16.42
2019-05-11T01:07:56.744Z,14.58
2019-05-11T01:13:04.640Z,15.45
2019-05-11T01:18:13.002Z,14.85
2019-05-11T01:23:31.704Z,13.53
2019-05-11T01:28:44.332Z,14.70
2019-05-11T01:33:54.511Z,17.37
2019-05-11T01:39:05.789Z,16.35
2019-05-11T01:44:13.109Z,16.07
2019-05-11T01:49:23.553Z,15.10
2019-05-11T01:54:31.684Z,14.87
2019-05-11T01:59:41.949Z,15.10
2019-05-11T02:04:59.510Z,15.38
2019-05-11T02:10:33.182Z,15.67
2019-05-11T02:15:42.301Z,14.65
2019-05-11T02:20:59.442Z,16.80
2019-05-11T02:26:08.106Z,15.58
2019-05-11T02:31:16.782Z,15.48
2019-05-11T02:36:29.174Z,16.10
2019-05-11T02:41:38.480Z,15.00
2019-05-11T02:47:16.280Z,15.08
2019-05-11T02:52:27.969Z,14.40
2019-05-11T02:57:35.761Z,13.62
2019-05-11T03:02:44.617Z,16.10
2019-05-11T03:07:54.260Z,15.05
2019-05-11T03:13:05.920Z,15.50
2019-05-11T03:18:21.316Z,14.95
2019-05-11T03:23:45.511Z,14.28
2019-05-11T03:28:57.236Z,14.83
2019-05-11T03:34:06.259Z,14.68
2019-05-11T03:39:16.659Z,16.20
2019-05-11T03:44:28.821Z,14.47
2019-05-11T03:49:35.886Z,14.13
2019-05-11T03:54:51.911Z,16.17
2019-05-11T04:00:01.661Z,14.63
2019-05-11T04:05:18.804Z,15.35
2019-05-11T04:10:28.267Z,14.53
2019-05-11T04:15:45.837Z,14.53
2019-05-11T04:21:16.121Z,15.13
2019-05-11T04:31:55.076Z,15.05
2019-05-11T04:37:12.289Z,14.78
2019-05-11T04:42:20.714Z,14.35
2019-05-11T04:47:36.427Z,13.83
2019-05-11T04:52:48.791Z,15.35
2019-05-11T04:57:59.435Z,13.75
2019-05-11T05:03:10.046Z,14.28
2019-05-11T05:08:26.485Z,13.27
2019-05-11T05:13:43.495Z,13.72
2019-05-11T05:18:54.471Z,13.48
2019-05-11T05:24:06.140Z,12.65
2019-05-11T05:29:15.906Z,13.30
2019-05-11T05:39:53.496Z,13.65
2019-05-11T05:45:03.063Z,13.83
2019-05-11T05:50:18.519Z,13.13
2019-05-11T05:55:27.746Z,12.33
2019-05-11T06:00:35.949Z,12.85
2019-05-11T06:05:44.351Z,12.85
2019-05-11T06:10:56.519Z,11.73
2019-05-11T06:16:08.562Z,12.70
2019-05-11T06:21:17.402Z,12.65
2019-05-11T06:26:26.881Z,12.53
2019-05-11T06:31:35.503Z,12.63
2019-05-11T06:36:43.644Z,13.18
2019-05-11T06:41:55.841Z,12.82
2019-05-11T06:47:04.252Z,13.83
2019-05-11T06:52:12.474Z,14.50
2019-05-11T06:57:21.500Z,13.40
2019-05-11T07:02:29.845Z,12.63
2019-05-11T07:07:47.268Z,13.60
2019-05-11T07:12:48.099Z,13.68
2019-05-11T07:17:56.694Z,14.70
2019-05-11T07:23:04.935Z,15.75
2019-05-11T07:28:13.266Z,13.85
2019-05-11T07:33:21.674Z,13.18
2019-05-11T07:38:29.713Z,13.85
2019-05-11T07:43:38.116Z,13.72
2019-05-11T07:48:47.963Z,15.08
2019-05-11T07:53:57.799Z,14.53
2019-05-11T07:59:09.688Z,15.72
2019-05-11T08:04:18.302Z,13.90
2019-05-11T08:09:27.827Z,13.30
2019-05-11T08:14:55.926Z,13.28
2019-05-11T08:19:53.646Z,14.13
2019-05-11T08:25:09.392Z,12.07
2019-05-11T08:30:18.820Z,12.60
2019-05-11T08:35:48.028Z,12.43
2019-05-11T08:40:56.196Z,12.85
2019-05-11T08:46:04.739Z,12.40
2019-05-11T08:51:18.008Z,12.23
2019-05-11T08:56:28.734Z,12.55
2019-05-11T09:01:39.054Z,12.15
2019-05-11T09:11:55.196Z,14.33
2019-05-11T09:17:03.482Z,13.55
2019-05-11T09:22:14.033Z,13.25
2019-05-11T09:27:22.388Z,14.20
2019-05-11T09:32:40.726Z,12.60
2019-05-11T09:37:58.610Z,12.40
2019-05-11T09:43:09.298Z,12.73
2019-05-11T09:48:18.098Z,14.28
2019-05-11T09:53:28.669Z,14.10
2019-05-11T09:58:39.818Z,13.40
2019-05-11T10:03:48.362Z,12.15
2019-05-11T10:08:57.883Z,14.55
2019-05-11T10:14:08.334Z,13.60
2019-05-11T10:19:17.688Z,14.47
2019-05-11T10:24:32.302Z,15.00
2019-05-11T10:29:44.374Z,15.70
2019-05-11T10:34:53.089Z,16.45
2019-05-11T10:40:01.527Z,15.90
2019-05-11T10:45:11.165Z,16.67
2019-05-11T10:50:20.028Z,16.48
2019-05-11T10:55:29.125Z,15.75
2019-05-11T11:00:38.859Z,16.62
2019-05-11T11:05:48.781Z,17.50
2019-05-11T11:10:58.622Z,16.67
2019-05-11T11:16:08.498Z,18.12
2019-05-11T11:21:22.087Z,18.70
2019-05-11T11:26:28.459Z,33.13
2019-05-11T11:31:38.018Z,27.65
2019-05-11T11:36:48.145Z,25.00
2019-05-11T11:41:58.537Z,24.75
2019-05-11T11:47:08.716Z,25.70
2019-05-11T11:52:19.114Z,26.30
2019-05-11T11:57:28.388Z,26.00
2019-05-11T12:02:38.566Z,73.65
2019-05-11T12:07:45.802Z,45.73
2019-05-11T12:12:53.930Z,36.45
2019-05-11T12:18:02.515Z,28.95
2019-05-11T12:28:29.407Z,27.70
2019-05-11T12:33:38.569Z,26.55
2019-05-11T12:38:48.805Z,34.03
2019-05-11T12:43:57.755Z,31.15
2019-05-11T12:49:07.328Z,34.92
2019-05-11T12:54:14.732Z,29.85
2019-05-11T12:59:22.698Z,26.30
2019-05-11T13:04:30.721Z,25.23
2019-05-11T13:09:38.806Z,27.55
2019-05-11T13:14:48.646Z,26.85
2019-05-11T13:19:55.795Z,25.10
2019-05-11T13:25:03.633Z,23.98
2019-05-11T13:30:11.580Z,24.37
2019-05-11T13:35:21.529Z,24.40
2019-05-11T13:40:30.178Z,25.73
2019-05-11T13:45:38.751Z,50.60
2019-05-11T13:50:47.957Z,50.20
2019-05-11T13:56:18.438Z,41.35
2019-05-11T14:01:27.886Z,36.48
2019-05-11T14:06:37.648Z,34.43
2019-05-11T14:11:45.043Z,32.85
2019-05-11T14:16:53.550Z,31.33
2019-05-11T14:22:02.061Z,29.57
2019-05-11T14:27:10.927Z,30.75
2019-05-11T14:37:58.784Z,27.87
2019-05-11T14:43:13.331Z,26.93
2019-05-11T14:48:26.664Z,29.32
2019-05-11T14:53:29.534Z,28.73
2019-05-11T14:58:39.198Z,29.25
2019-05-11T15:03:48.759Z,30.52
2019-05-11T15:08:58.613Z,30.23
2019-05-11T15:14:09.585Z,29.92
2019-05-11T15:19:18.477Z,29.32
2019-05-11T15:24:30.246Z,29.35
2019-05-11T15:29:39.242Z,30.72
2019-05-11T15:40:30.399Z,30.50
2019-05-11T15:45:48.557Z,29.05
2019-05-11T15:50:58.530Z,30.70
2019-05-11T16:01:48.745Z,30.37
2019-05-11T16:07:24.292Z,31.40
2019-05-11T16:12:28.630Z,30.10
2019-05-11T16:17:40.388Z,32.67
2019-05-11T16:33:31.682Z,35.75
2019-05-11T16:38:39.704Z,33.75
2019-05-11T16:43:48.632Z,32.30
2019-05-11T16:49:04.344Z,31.15
2019-05-11T16:54:20.353Z,35.00
2019-05-11T16:59:32.837Z,36.77
2019-05-11T17:04:42.452Z,41.28
2019-05-11T17:09:49.894Z,43.42
2019-05-11T17:14:59.359Z,41.20
2019-05-11T17:20:08.376Z,37.23
2019-05-11T17:25:19.273Z,34.65
2019-05-11T17:30:28.018Z,35.25
2019-05-11T17:35:35.427Z,34.63
2019-05-11T17:40:48.294Z,33.15
2019-05-11T17:45:55.703Z,32.58
2019-05-11T17:51:17.545Z,33.98
2019-05-11T17:56:12.246Z,33.80
2019-05-11T18:01:19.996Z,34.58
2019-05-11T18:06:29.084Z,34.67
2019-05-11T18:11:40.195Z,33.90
2019-05-11T18:16:52.870Z,33.65
2019-05-11T18:22:02.827Z,34.20
2019-05-11T18:32:19.029Z,34.00
2019-05-11T18:37:28.096Z,34.90
2019-05-11T18:42:35.293Z,32.75
2019-05-11T18:47:42.326Z,30.62
2019-05-11T18:52:50.002Z,29.42
2019-05-11T18:57:58.600Z,27.77
2019-05-11T19:03:08.831Z,26.90
2019-05-11T19:08:18.800Z,26.68
2019-05-11T19:13:25.004Z,22.73
2019-05-11T19:18:32.559Z,22.60
2019-05-11T19:23:41.660Z,20.25
2019-05-11T19:28:49.105Z,20.50
2019-05-11T19:33:58.143Z,18.37
2019-05-11T19:39:08.796Z,17.73
2019-05-11T19:44:18.731Z,16.30
2019-05-11T19:49:28.030Z,16.37
2019-05-11T19:54:38.245Z,16.00
2019-05-11T19:59:47.905Z,15.28
2019-05-11T20:04:55.267Z,15.75
2019-05-11T20:10:03.318Z,15.10
2019-05-11T20:15:11.904Z,16.48
2019-05-11T20:20:19.606Z,17.23
2019-05-11T20:25:28.872Z,15.95
2019-05-11T20:30:35.635Z,14.58
2019-05-11T20:35:43.180Z,14.93
2019-05-11T20:40:51.332Z,14.33
2019-05-11T20:46:00.181Z,14.45
2019-05-11T20:51:10.939Z,13.68
2019-05-11T20:56:18.722Z,14.10
2019-05-11T21:06:53.293Z,15.30
2019-05-11T21:12:02.991Z,14.38
2019-05-11T21:17:10.984Z,15.25
2019-05-11T21:22:20.597Z,15.10
2019-05-11T21:27:28.823Z,15.28
2019-05-11T21:32:37.596Z,15.43
2019-05-11T21:37:44.997Z,15.90
2019-05-11T21:42:53.310Z,17.32
2019-05-11T21:48:00.664Z,15.08
2019-05-11T21:53:10.640Z,16.25
2019-05-11T21:58:18.213Z,16.32
2019-05-11T22:03:27.929Z,16.07
2019-05-11T22:08:35.162Z,16.42
2019-05-11T22:13:42.884Z,17.23
2019-05-11T22:18:50.282Z,15.72
2019-05-11T22:23:58.658Z,17.20
2019-05-11T22:29:07.889Z,18.70
2019-05-11T22:34:17.705Z,20.80
2019-05-11T22:39:26.245Z,20.10
2019-05-11T22:44:35.852Z,23.20
2019-05-11T22:49:44.457Z,22.22
2019-05-11T22:54:53.066Z,19.92
2019-05-11T23:00:01.712Z,20.92
2019-05-11T23:05:11.557Z,22.32
2019-05-11T23:10:18.915Z,24.55
2019-05-11T23:15:29.317Z,25.63
2019-05-11T23:20:38.614Z,25.70
2019-05-11T23:25:45.633Z,23.05
2019-05-11T23:30:58.245Z,22.80
2019-05-11T23:36:13.126Z,24.00
2019-05-11T23:41:28.765Z,26.48
2019-05-11T23:46:52.123Z,34.40
2019-05-11T23:52:11.898Z,23.45
2019-05-11T23:57:02.677Z,22.35
